Time;durP1;ratioP1;P1;durP2;ratioP2;P2;SDS_P1;SDS_P2;PMS_P1;PMS_P2;Temp;Humidity;BMP_temperature;BMP_pressure;BME280_temperature;BME280_humidity;BME280_pressure;Samples;Min_cycle;Max_cycle;Signal;HPM_P1;HPM_P2
2023/10/14 00:01:13;;;;;;;7.85;5.28;;;;;;;25.05;41.69;96924.09;5096831;28;20038;-33
2023/10/14 00:03:50;;;;;;;12.07;4.50;;;;;;;25.09;41.51;96927.38;5096666;28;20016;-32
2023/10/14 00:06:17;;;;;;;8.98;4.95;;;;;;;25.07;41.67;96927.13;5104209;28;20020;-33
2023/10/14 00:08:57;;;;;;;9.98;5.45;;;;;;;25.07;42.26;96920.81;5103242;28;20051;-32
2023/10/14 00:11:35;;;;;;;13.88;6.55;;;;;;;25.29;42.34;96918.69;5099731;28;20110;-32
2023/10/14 00:14:02;;;;;;;11.35;5.80;;;;;;;25.19;42.99;96914.69;5099185;28;20078;-32
2023/10/14 00:18:57;;;;;;;12.45;6.82;;;;;;;25.20;42.82;96918.97;5096489;28;20088;-32
2023/10/14 00:21:23;;;;;;;11.82;6.75;;;;;;;25.13;43.11;96913.19;5096516;28;20030;-33
2023/10/14 00:23:55;;;;;;;10.52;6.47;;;;;;;25.11;43.42;96922.03;5096547;28;20556;-33
2023/10/14 00:26:24;;;;;;;15.93;8.48;;;;;;;25.11;43.57;96924.06;5103532;28;20028;-32
2023/10/14 00:31:34;;;;;;;17.25;9.68;;;;;;;25.23;44.50;96912.38;5096376;28;20116;-35
2023/10/14 00:33:59;;;;;;;15.90;10.13;;;;;;;25.02;45.70;96906.44;5096016;28;20387;-36
2023/10/14 00:36:31;;;;;;;16.75;10.70;;;;;;;25.11;45.79;96908.16;5095933;28;20048;-32
2023/10/14 00:39:24;;;;;;;17.83;10.70;;;;;;;24.96;46.55;96897.41;5096077;28;20460;-33
2023/10/14 00:41:50;;;;;;;20.15;10.65;;;;;;;24.85;46.63;96889.06;5103713;28;20035;-32
2023/10/14 00:44:17;;;;;;;17.95;9.07;;;;;;;24.84;45.91;96898.69;5096245;28;20459;-32
2023/10/14 00:46:48;;;;;;;14.85;8.18;;;;;;;25.09;44.84;96899.63;5096100;28;20035;-33
2023/10/14 00:49:17;;;;;;;13.57;6.90;;;;;;;25.06;44.29;96895.09;5095692;28;20023;-32
2023/10/14 00:51:45;;;;;;;11.80;6.78;;;;;;;25.12;44.00;96890.25;5095758;28;20437;-33
2023/10/14 00:54:26;;;;;;;14.38;6.78;;;;;;;24.86;44.38;96887.81;5095900;28;20024;-32
2023/10/14 00:56:52;;;;;;;14.02;6.47;;;;;;;24.97;43.73;96889.84;5095799;28;20485;-32
2023/10/14 00:59:18;;;;;;;10.15;6.57;;;;;;;24.98;43.43;96889.28;5095810;28;20023;-32
2023/10/14 01:01:55;;;;;;;11.63;5.97;;;;;;;24.94;43.77;96888.06;5095621;28;20004;-33
2023/10/14 01:04:21;;;;;;;11.32;6.53;;;;;;;24.76;44.19;96883.06;5095640;28;20016;-33
2023/10/14 01:06:56;;;;;;;10.25;6.95;;;;;;;24.80;44.28;96878.00;5095566;28;20031;-33
2023/10/14 01:09:31;;;;;;;10.57;6.93;;;;;;;25.03;43.71;96873.91;5095483;28;20020;-32
2023/10/14 01:11:58;;;;;;;11.05;6.40;;;;;;;25.07;43.76;96876.41;5095522;28;20024;-32
2023/10/14 01:14:24;;;;;;;11.90;7.22;;;;;;;24.93;43.92;96870.66;5102439;28;20032;-32
2023/10/14 01:16:49;;;;;;;9.77;6.38;;;;;;;24.79;44.21;96870.94;5101781;28;20024;-32
2023/10/14 01:19:21;;;;;;;13.35;6.75;;;;;;;24.80;44.27;96866.91;5095952;28;20379;-32
2023/10/14 01:21:51;;;;;;;9.80;6.85;;;;;;;24.85;44.27;96866.88;5095281;28;20016;-32
2023/10/14 01:24:16;;;;;;;11.45;7.75;;;;;;;24.82;44.59;96869.94;5095763;28;20027;-32
2023/10/14 01:27:05;;;;;;;18.40;8.93;;;;;;;24.92;44.93;96869.13;5095349;28;20012;-32
2023/10/14 01:29:31;;;;;;;18.17;12.15;;;;;;;24.77;46.83;96865.91;5096792;28;20035;-32
2023/10/14 01:32:36;;;;;;;22.17;14.75;;;;;;;24.65;48.14;96856.13;5100258;28;20053;-33
2023/10/14 01:37:57;;;;;;;21.55;14.23;;;;;;;24.82;48.45;96856.81;5095057;28;20367;-32
2023/10/14 01:42:50;;;;;;;25.25;15.60;;;;;;;24.55;50.11;96852.91;5105236;28;20024;-33
2023/10/14 01:45:20;;;;;;;25.05;16.08;;;;;;;24.77;49.73;96846.50;5099574;28;20027;-33
2023/10/14 01:48:04;;;;;;;27.05;16.00;;;;;;;24.64;51.00;96847.06;5094992;28;20039;-33
2023/10/14 01:50:31;;;;;;;25.92;16.27;;;;;;;24.72;51.40;96844.53;5094986;28;20157;-33
2023/10/14 01:53:00;;;;;;;28.92;17.13;;;;;;;24.77;51.51;96838.19;5101419;28;20119;-33
2023/10/14 01:55:26;;;;;;;25.20;14.90;;;;;;;24.66;52.75;96835.44;5094533;28;20486;-32
2023/10/14 01:57:53;;;;;;;27.73;15.95;;;;;;;24.69;52.85;96828.91;5094578;28;20024;-32
2023/10/14 02:00:36;;;;;;;24.10;15.27;;;;;;;24.65;53.13;96829.16;5094806;28;20024;-32
2023/10/14 02:03:06;;;;;;;;;;;;;;;24.79;53.18;96826.56;5095098;28;20020;-32
2023/10/14 02:05:40;;;;;;;22.05;14.48;;;;;;;24.60;53.92;96827.16;5094468;28;19909;-32
2023/10/14 02:08:16;;;;;;;23.50;14.55;;;;;;;24.61;53.91;96834.19;5094386;28;20024;-32
2023/10/14 02:10:53;;;;;;;24.50;15.38;;;;;;;24.76;54.07;96822.78;5094247;28;20020;-34
2023/10/14 02:13:23;;;;;;;23.38;14.65;;;;;;;24.65;54.28;96818.06;5094799;28;20024;-32
2023/10/14 02:15:52;;;;;;;22.02;14.25;;;;;;;24.73;54.02;96817.53;5094645;28;20429;-32
2023/10/14 02:18:22;;;;;;;21.98;13.52;;;;;;;24.76;54.63;96813.72;5093918;28;20027;-34
2023/10/14 02:23:49;;;;;;;18.75;11.98;;;;;;;24.77;54.16;96815.22;5094473;28;20019;-34
2023/10/14 02:26:16;;;;;;;20.70;12.25;;;;;;;24.76;53.61;96822.03;5094847;28;20039;-33
2023/10/14 02:28:45;;;;;;;21.65;12.40;;;;;;;24.87;52.90;96806.09;5094065;28;20455;-32
2023/10/14 02:31:20;;;;;;;21.58;12.48;;;;;;;24.76;53.21;96813.72;5094027;28;20481;-32
2023/10/14 02:33:47;;;;;;;22.25;13.25;;;;;;;24.78;52.96;96808.41;5094056;28;20467;-33
2023/10/14 02:36:17;;;;;;;20.42;12.85;;;;;;;24.72;52.93;96807.72;5101189;28;20020;-33
2023/10/14 02:38:45;;;;;;;21.88;13.15;;;;;;;24.75;52.97;96803.88;5093677;28;20035;-32
2023/10/14 02:41:14;;;;;;;22.27;13.02;;;;;;;24.64;53.15;96805.44;5093651;28;20027;-32
2023/10/14 02:43:41;;;;;;;18.63;11.57;;;;;;;24.77;52.56;96796.56;5093770;28;20023;-33
2023/10/14 02:46:10;;;;;;;21.00;12.77;;;;;;;24.83;52.56;96802.09;5093719;28;20028;-33
2023/10/14 02:48:54;;;;;;;23.48;12.90;;;;;;;24.77;52.40;96801.34;5101081;28;20485;-33
2023/10/14 02:51:41;;;;;;;23.15;12.73;;;;;;;24.62;52.75;96802.44;5093924;28;20040;-33
2023/10/14 02:59:19;;;;;;;20.40;11.75;;;;;;;24.57;52.95;96783.06;5093713;28;20061;-32
2023/10/14 03:01:51;;;;;;;16.33;10.52;;;;;;;24.64;52.59;96788.81;5093756;28;20076;-33
2023/10/14 03:04:21;;;;;;;21.90;12.38;;;;;;;24.64;53.11;96782.50;5093971;28;20021;-33
2023/10/14 03:06:53;;;;;;;20.90;12.25;;;;;;;24.55;53.14;96780.81;5093563;28;20020;-33
2023/10/14 03:09:19;;;;;;;20.77;12.30;;;;;;;24.45;53.40;96782.34;5101326;28;20107;-32
2023/10/14 03:11:48;;;;;;;21.40;11.65;;;;;;;24.52;53.09;96776.28;5093791;28;20043;-32
2023/10/14 03:14:15;;;;;;;21.58;12.85;;;;;;;24.40;53.45;96774.81;5093531;28;20024;-32
2023/10/14 03:16:40;;;;;;;21.63;12.05;;;;;;;24.48;53.15;96775.78;5092384;28;20030;-32
2023/10/14 03:19:06;;;;;;;19.67;12.45;;;;;;;24.49;53.18;96770.97;5093344;28;20386;-32
2023/10/14 03:21:34;;;;;;;19.48;12.70;;;;;;;24.51;53.30;96779.56;5093760;28;20016;-33
2023/10/14 03:24:00;;;;;;;21.33;12.65;;;;;;;24.41;53.38;96781.88;5093670;28;20032;-32
2023/10/14 03:26:32;;;;;;;17.50;12.38;;;;;;;24.54;52.86;96773.75;5094102;28;20074;-33
2023/10/14 03:29:04;;;;;;;20.38;13.05;;;;;;;24.56;52.52;96778.78;5094548;28;20115;-33
2023/10/14 03:31:35;;;;;;;19.35;11.27;;;;;;;24.51;52.51;96777.53;5097415;28;20028;-32
2023/10/14 03:34:08;;;;;;;20.83;12.35;;;;;;;24.43;52.41;96768.25;5097313;28;20024;-32
2023/10/14 03:36:33;;;;;;;17.35;11.48;;;;;;;24.43;52.44;96770.28;5097415;28;20047;-32
2023/10/14 03:38:59;;;;;;;15.13;10.55;;;;;;;24.34;52.13;96761.00;5097371;28;20062;-32
2023/10/14 03:41:42;;;;;;;14.38;9.90;;;;;;;24.49;51.31;96777.28;5097429;28;20032;-33
2023/10/14 03:44:09;;;;;;;15.35;9.43;;;;;;;24.60;50.55;96766.13;5097093;28;20016;-32
2023/10/14 03:46:35;;;;;;;13.73;9.02;;;;;;;24.56;50.64;96762.16;5097101;28;20111;-33
2023/10/14 03:49:12;;;;;;;12.63;8.95;;;;;;;24.44;50.80;96764.22;5097045;28;20103;-32
2023/10/14 03:51:38;;;;;;;13.45;8.93;;;;;;;24.40;50.84;96763.72;5096778;28;20122;-33
2023/10/14 03:54:12;;;;;;;14.68;9.20;;;;;;;24.54;50.28;96761.91;5104046;28;20463;-32
2023/10/14 03:56:44;;;;;;;14.20;8.30;;;;;;;24.50;50.23;96764.19;5097219;28;20023;-32
2023/10/14 03:59:12;;;;;;;12.32;7.82;;;;;;;24.62;49.39;96751.75;5096683;28;20022;-32
2023/10/14 04:04:18;;;;;;;14.93;8.18;;;;;;;24.63;48.66;96754.03;5096744;28;20023;-33
2023/10/14 04:07:28;;;;;;;13.38;7.57;;;;;;;24.62;48.31;96752.53;5103544;28;20030;-33
2023/10/14 04:09:39;;;;;;;10.32;7.53;;;;;;;24.56;48.00;96757.34;5096610;28;20052;-32
2023/10/14 04:12:12;;;;;;;10.65;7.07;;;;;;;24.55;47.74;96755.84;5096989;28;20024;-33
2023/10/14 04:14:39;;;;;;;11.23;7.50;;;;;;;24.55;47.61;96747.53;5096668;28;20020;-33
2023/10/14 04:17:30;;;;;;;12.57;7.45;;;;;;;24.61;47.18;96742.69;5096594;28;20050;-32
2023/10/14 04:19:57;;;;;;;11.55;6.85;;;;;;;24.52;47.42;96737.44;5096351;28;20024;-32
2023/10/14 04:24:54;;;;;;;12.18;6.78;;;;;;;24.30;47.26;96729.25;5096932;28;20028;-32
2023/10/14 04:27:32;;;;;;;10.27;7.03;;;;;;;24.27;47.06;96733.78;5096815;28;20020;-33
2023/10/14 04:30:10;;;;;;;12.50;6.93;;;;;;;24.37;46.96;96725.94;5096483;28;20020;-32
2023/10/14 04:35:32;;;;;;;9.85;6.20;;;;;;;24.29;46.31;96733.28;5078058;28;20043;-33
2023/10/14 04:38:13;;;;;;;10.45;5.72;;;;;;;24.36;46.16;96729.97;5096173;28;20095;-32
2023/10/14 04:40:39;;;;;;;10.70;6.13;;;;;;;24.31;46.31;96727.97;5095739;28;20028;-33
2023/10/14 04:45:45;;;;;;;10.95;5.95;;;;;;;24.16;46.33;96725.50;5095877;28;20020;-32
2023/10/14 04:48:16;;;;;;;9.98;6.25;;;;;;;24.40;45.79;96719.38;5095990;28;20017;-33
2023/10/14 04:50:42;;;;;;;12.82;5.82;;;;;;;24.41;45.84;96720.88;5095965;28;20524;-33
2023/10/14 04:53:13;;;;;;;14.20;6.85;;;;;;;24.36;45.49;96720.91;5095448;28;20036;-32
2023/10/14 04:55:43;;;;;;;9.63;6.28;;;;;;;24.29;45.95;96724.97;5096332;28;20016;-32
2023/10/14 04:58:12;;;;;;;10.95;6.88;;;;;;;24.24;45.94;96722.97;5096020;28;20055;-33
2023/10/14 05:00:42;;;;;;;15.38;7.28;;;;;;;24.17;46.20;96723.47;5094357;28;20370;-32
2023/10/14 05:03:14;;;;;;;11.48;6.90;;;;;;;24.22;46.26;96719.94;5103470;28;20016;-32
2023/10/14 05:05:49;;;;;;;14.45;7.05;;;;;;;24.10;46.51;96719.22;5095396;28;20043;-33
2023/10/14 05:08:21;;;;;;;11.77;6.97;;;;;;;24.13;46.68;96722.97;5096094;28;20383;-32
2023/10/14 05:10:52;;;;;;;10.87;7.60;;;;;;;24.30;46.08;96727.22;5095339;28;20514;-32
2023/10/14 05:13:31;;;;;;;10.80;7.35;;;;;;;24.17;46.08;96723.47;5103070;28;20276;-32
2023/10/14 05:16:14;;;;;;;12.35;7.80;;;;;;;24.16;46.00;96722.72;5095641;28;20103;-32
2023/10/14 05:18:43;;;;;;;12.80;7.65;;;;;;;24.30;46.41;96720.94;5095401;28;20019;-32
2023/10/14 05:21:35;;;;;;;10.38;7.03;;;;;;;24.31;46.04;96722.44;5095135;28;20062;-32
2023/10/14 05:24:02;;;;;;;11.48;6.85;;;;;;;24.32;46.04;96721.19;5095050;28;20093;-32
2023/10/14 05:26:27;;;;;;;15.05;7.80;;;;;;;24.29;46.16;96717.41;5094940;28;20027;-33
2023/10/14 05:28:53;;;;;;;18.38;7.13;;;;;;;24.19;46.49;96715.41;5095549;28;20020;-32
2023/10/14 05:31:18;;;;;;;10.80;6.88;;;;;;;24.21;46.65;96713.66;5095504;28;20471;-33
2023/10/14 05:33:44;;;;;;;14.02;7.25;;;;;;;24.16;46.81;96710.88;5094854;28;20031;-32
2023/10/14 05:36:09;;;;;;;11.98;7.57;;;;;;;24.21;46.53;96719.19;5095201;28;20103;-32
2023/10/14 05:38:35;;;;;;;15.18;7.93;;;;;;;24.18;46.80;96713.91;5094909;28;20028;-32
2023/10/14 05:41:01;;;;;;;13.02;6.90;;;;;;;24.40;46.13;96719.38;5094820;28;20024;-32
2023/10/14 05:43:27;;;;;;;8.35;6.15;;;;;;;24.18;46.13;96714.66;5094596;28;20530;-32
2023/10/14 05:45:53;;;;;;;10.55;6.32;;;;;;;24.20;45.65;96711.38;5102206;28;20835;-34
2023/10/14 05:48:26;;;;;;;8.05;5.75;;;;;;;24.16;45.88;96721.97;5095000;28;20023;-32
2023/10/14 05:50:56;;;;;;;9.70;5.82;;;;;;;24.23;45.43;96724.25;5094809;28;20176;-32
2023/10/14 05:53:25;;;;;;;8.70;5.15;;;;;;;24.45;44.75;96713.06;5094022;28;20091;-32
2023/10/14 05:56:14;;;;;;;9.10;5.15;;;;;;;24.23;45.12;96711.13;5094618;28;20023;-32
2023/10/14 05:58:45;;;;;;;10.10;5.45;;;;;;;24.28;45.21;96710.34;5094397;28;20429;-32
2023/10/14 06:01:13;;;;;;;10.20;5.18;;;;;;;24.32;44.77;96708.06;5102272;28;20107;-32
2023/10/14 06:03:41;;;;;;;7.30;4.93;;;;;;;24.42;44.67;96710.53;5101006;28;20031;-34
2023/10/14 06:06:10;;;;;;;8.07;5.07;;;;;;;24.17;45.20;96715.16;5095539;28;20034;-32
2023/10/14 06:08:39;;;;;;;8.57;4.80;;;;;;;24.42;44.42;96707.78;5094275;28;20035;-32
2023/10/14 06:11:05;;;;;;;7.07;4.60;;;;;;;24.30;44.69;96705.06;5094358;28;20123;-32
2023/10/14 06:13:32;;;;;;;10.25;5.10;;;;;;;24.13;45.15;96709.13;5098516;28;20099;-32
2023/10/14 06:16:01;;;;;;;7.18;4.82;;;;;;;24.41;44.57;96720.88;5097057;28;20024;-33
2023/10/14 06:18:29;;;;;;;10.70;5.03;;;;;;;24.34;45.27;96718.66;5101780;28;20479;-32
2023/10/14 06:20:57;;;;;;;10.57;6.03;;;;;;;24.45;45.46;96721.38;5094368;28;20020;-32
2023/10/14 06:23:26;;;;;;;10.32;7.22;;;;;;;24.28;46.44;96723.47;5094257;28;20024;-33
2023/10/14 06:25:52;;;;;;;10.85;6.35;;;;;;;24.22;46.41;96720.72;5094156;28;20024;-32
2023/10/14 06:28:19;;;;;;;9.45;6.32;;;;;;;24.23;46.49;96722.22;5093852;28;20027;-32
2023/10/14 06:30:45;;;;;;;10.70;6.40;;;;;;;24.22;46.22;96729.03;5101372;28;20035;-32
2023/10/14 06:33:11;;;;;;;12.00;6.63;;;;;;;24.15;46.55;96728.78;5094002;28;20028;-32
2023/10/14 06:35:42;;;;;;;9.55;5.63;;;;;;;24.22;46.52;96725.47;5094300;28;20077;-32
2023/10/14 06:38:09;;;;;;;8.15;5.72;;;;;;;24.09;46.46;96728.81;5093976;28;20016;-32
2023/10/14 06:40:36;;;;;;;11.27;5.60;;;;;;;24.41;45.33;96729.19;5094052;28;20056;-32
2023/10/14 06:43:06;;;;;;;9.98;5.50;;;;;;;24.36;45.57;96724.41;5094011;28;20050;-32
2023/10/14 06:45:34;;;;;;;9.63;5.72;;;;;;;24.43;45.19;96731.47;5093838;28;20016;-33
2023/10/14 06:48:03;;;;;;;12.73;6.30;;;;;;;24.42;45.09;96733.47;5093938;28;20107;-34
2023/10/14 06:50:29;;;;;;;17.55;10.52;;;;;;;24.44;44.89;96736.50;5094069;28;20022;-32
2023/10/14 06:52:59;;;;;;;23.70;13.13;;;;;;;24.13;45.68;96739.59;5093561;28;20036;-33
2023/10/14 06:55:33;;;;;;;29.48;15.20;;;;;;;24.40;45.03;96740.78;5093696;28;20028;-33
2023/10/14 06:57:59;;;;;;;23.40;13.63;;;;;;;24.60;44.63;96737.69;5093528;28;20035;-32
2023/10/14 07:00:29;;;;;;;18.65;11.07;;;;;;;24.58;44.56;96746.50;5093710;28;20510;-32
2023/10/14 07:02:57;;;;;;;13.23;7.90;;;;;;;24.45;44.88;96740.78;5093992;28;20421;-32
2023/10/14 07:05:23;;;;;;;13.65;6.85;;;;;;;24.30;45.33;96737.56;5093733;28;20110;-33
2023/10/14 07:07:52;;;;;;;10.00;6.00;;;;;;;24.28;45.51;96742.84;5094183;28;20588;-32
2023/10/14 07:10:18;;;;;;;8.75;5.28;;;;;;;24.45;45.24;96740.78;5100861;28;20032;-32
2023/10/14 07:12:43;;;;;;;10.73;5.00;;;;;;;24.42;45.25;96741.78;5093450;28;20032;-32
2023/10/14 07:15:15;;;;;;;8.20;4.50;;;;;;;24.38;45.61;96749.63;5093472;28;20032;-33
2023/10/14 07:17:42;;;;;;;11.77;4.70;;;;;;;24.61;45.11;96751.00;5093888;28;20048;-32
2023/10/14 07:20:10;;;;;;;6.65;4.22;;;;;;;24.48;45.66;96752.88;5093908;28;20059;-32
2023/10/14 07:22:37;;;;;;;7.03;4.20;;;;;;;24.40;45.99;96749.09;5100818;28;20034;-32
2023/10/14 07:25:05;;;;;;;7.25;3.80;;;;;;;24.41;45.82;96751.38;5093496;28;20024;-33
2023/10/14 07:27:35;;;;;;;9.27;4.18;;;;;;;24.45;45.67;96756.66;5093255;28;20047;-32
2023/10/14 07:30:13;;;;;;;8.15;4.13;;;;;;;24.41;45.94;96756.91;5093918;28;20047;-33
2023/10/14 07:32:47;;;;;;;7.20;3.92;;;;;;;24.36;46.21;96754.91;5100591;28;20024;-32
2023/10/14 07:35:18;;;;;;;5.45;3.72;;;;;;;24.51;46.30;96758.13;5100358;28;20024;-33
2023/10/14 07:37:48;;;;;;;12.13;6.18;;;;;;;24.47;46.45;96768.75;5093860;28;20043;-32
2023/10/14 07:40:24;;;;;;;10.90;5.45;;;;;;;24.51;46.65;96758.13;5093287;28;20016;-32
2023/10/14 07:42:52;;;;;;;11.32;7.10;;;;;;;24.55;46.37;96758.63;5100803;28;20050;-32
2023/10/14 07:45:22;;;;;;;14.07;6.93;;;;;;;24.58;46.51;96762.38;5093339;28;20020;-32
2023/10/14 07:47:48;;;;;;;18.85;9.20;;;;;;;24.55;46.69;96768.94;5093570;28;20059;-32
2023/10/14 07:50:15;;;;;;;22.00;10.23;;;;;;;24.57;46.94;96769.94;5093103;28;20031;-33
2023/10/14 07:52:41;;;;;;;26.70;10.77;;;;;;;24.52;47.22;96770.72;5093200;28;20033;-32
2023/10/14 07:55:10;;;;;;;17.48;8.57;;;;;;;24.48;47.57;96775.03;5093721;28;20024;-32
2023/10/14 07:57:40;;;;;;;14.50;6.88;;;;;;;24.37;47.99;96775.81;5092813;28;20020;-32
2023/10/14 08:00:12;;;;;;;13.50;6.88;;;;;;;24.55;47.51;96774.50;5093737;28;20452;-32
2023/10/14 08:02:42;;;;;;;12.35;5.63;;;;;;;24.56;47.81;96773.22;5092908;28;20085;-33
2023/10/14 08:05:09;;;;;;;9.98;5.70;;;;;;;24.53;48.11;96769.47;5093160;28;20019;-33
2023/10/14 08:07:46;;;;;;;8.32;5.20;;;;;;;24.59;48.30;96772.97;5093906;28;20020;-33
2023/10/14 08:10:18;;;;;;;12.43;7.13;;;;;;;24.72;48.14;96771.66;5094605;28;20031;-33
2023/10/14 08:12:45;;;;;;;10.60;7.90;;;;;;;24.72;48.40;96768.88;5097295;28;20028;-33
2023/10/14 08:15:11;;;;;;;9.48;6.32;;;;;;;24.65;49.10;96772.94;5092675;28;20024;-32
2023/10/14 08:17:36;;;;;;;14.23;5.93;;;;;;;24.77;48.83;96779.16;5096632;28;20015;-32
2023/10/14 08:20:12;;;;;;;12.45;5.93;;;;;;;24.57;49.73;96775.50;5096507;28;20035;-33
2023/10/14 08:22:41;;;;;;;10.55;5.57;;;;;;;24.63;49.70;96769.91;5096388;28;20016;-32
2023/10/14 08:25:07;;;;;;;12.85;5.35;;;;;;;24.59;50.01;96772.22;5096678;28;20035;-33
2023/10/14 08:27:34;;;;;;;10.75;6.07;;;;;;;24.87;49.14;96766.50;5104254;28;20031;-34
2023/10/14 08:30:00;;;;;;;10.90;5.57;;;;;;;24.80;50.29;96769.81;5096273;28;20028;-33
2023/10/14 08:32:26;;;;;;;10.18;5.88;;;;;;;24.99;49.66;96770.75;5096072;28;20016;-33
2023/10/14 08:34:52;;;;;;;9.98;5.78;;;;;;;25.12;49.95;96770.16;5096179;28;20048;-33
2023/10/14 08:37:17;;;;;;;20.23;6.18;;;;;;;25.00;50.17;96773.00;5095976;28;20103;-33
2023/10/14 08:39:44;;;;;;;12.70;6.15;;;;;;;24.74;50.88;96775.41;5096332;28;20034;-33
2023/10/14 08:42:10;;;;;;;11.63;6.40;;;;;;;24.87;51.04;96772.03;5096025;28;20016;-33
2023/10/14 08:44:42;;;;;;;14.20;5.97;;;;;;;24.95;50.90;96771.03;5103861;28;20483;-32
2023/10/14 08:47:13;;;;;;;15.63;6.13;;;;;;;24.93;51.32;96770.03;5096228;28;20020;-32
2023/10/14 08:49:41;;;;;;;11.30;5.68;;;;;;;24.79;51.43;96765.53;5096148;28;20031;-33
2023/10/14 08:52:09;;;;;;;11.00;5.80;;;;;;;24.57;52.63;96764.41;5095612;28;20455;-32
2023/10/14 08:54:37;;;;;;;8.15;5.18;;;;;;;24.64;52.68;96763.84;5095612;28;20052;-32
2023/10/14 08:57:03;;;;;;;10.10;5.43;;;;;;;24.78;51.84;96769.59;5103640;28;20098;-29
2023/10/14 08:59:28;;;;;;;10.23;5.82;;;;;;;24.74;52.50;96760.78;5096020;28;20100;-29
2023/10/14 09:01:56;;;;;;;16.23;6.40;;;;;;;24.82;52.30;96765.28;5095701;28;20146;-28
2023/10/14 09:04:27;;;;;;;12.10;6.18;;;;;;;24.78;52.50;96764.03;5095762;28;20016;-29
2023/10/14 09:06:53;;;;;;;7.35;5.45;;;;;;;24.79;52.76;96766.31;5096512;28;20461;-30
2023/10/14 09:09:23;;;;;;;12.30;6.15;;;;;;;24.98;52.07;96760.91;5095529;28;20016;-29
2023/10/14 09:11:48;;;;;;;12.35;5.75;;;;;;;24.89;52.56;96758.41;5095251;28;20028;-29
2023/10/14 09:14:14;;;;;;;8.98;5.47;;;;;;;24.76;52.56;96761.03;5095733;28;20031;-29
2023/10/14 09:16:41;;;;;;;13.07;5.65;;;;;;;25.00;52.30;96761.16;5095774;28;20387;-29
2023/10/14 09:19:07;;;;;;;9.98;5.82;;;;;;;24.86;52.47;96765.75;5095384;28;20024;-29
2023/10/14 09:21:43;;;;;;;8.63;5.70;;;;;;;24.83;52.65;96752.16;5095258;28;20092;-29
2023/10/14 09:24:08;;;;;;;10.30;5.75;;;;;;;25.12;51.89;96767.38;5095300;28;20078;-30
2023/10/14 09:26:43;;;;;;;12.85;4.97;;;;;;;25.02;52.29;96759.38;5094792;28;20032;-29
2023/10/14 09:29:09;;;;;;;8.35;5.95;;;;;;;25.07;52.01;96768.19;5095538;28;20119;-28
2023/10/14 09:31:39;;;;;;;7.35;4.93;;;;;;;25.15;51.92;96761.56;5095531;28;20098;-29
2023/10/14 09:34:08;;;;;;;10.18;4.78;;;;;;;25.21;51.32;96767.06;5095180;28;20107;-30
2023/10/14 09:36:42;;;;;;;8.90;4.68;;;;;;;25.21;51.33;96767.81;5095028;28;20048;-29
2023/10/14 09:39:13;;;;;;;6.78;4.43;;;;;;;24.98;51.87;96766.44;5095132;28;20020;-28
2023/10/14 09:41:39;;;;;;;9.38;5.00;;;;;;;25.02;51.58;96758.63;5095263;28;20024;-29
2023/10/14 09:44:06;;;;;;;4.70;4.20;;;;;;;25.08;51.43;96764.91;5093486;28;20020;-29
2023/10/14 09:46:32;;;;;;;7.47;4.35;;;;;;;25.36;50.18;96765.41;5102218;28;20020;-30
2023/10/14 09:49:00;;;;;;;8.93;4.90;;;;;;;25.33;51.02;96758.16;5095126;28;20024;-29
2023/10/14 09:51:26;;;;;;;8.25;4.18;;;;;;;25.16;51.02;96746.41;5094570;28;20483;-29
2023/10/14 09:53:53;;;;;;;11.75;4.57;;;;;;;25.23;50.70;96736.75;5094768;28;20034;-28
2023/10/14 09:56:20;;;;;;;7.68;4.05;;;;;;;25.18;51.12;96737.56;5094568;28;20024;-29
2023/10/14 09:58:46;;;;;;;9.15;4.40;;;;;;;25.21;51.29;96742.84;5101890;28;20438;-29
2023/10/14 10:01:18;;;;;;;7.90;4.38;;;;;;;25.41;50.53;96744.44;5094547;28;20099;-30
2023/10/14 10:04:00;;;;;;;13.87;4.10;;;;;;;25.34;50.54;96736.69;5094451;28;20019;-29
2023/10/14 10:06:47;;;;;;;12.07;4.00;;;;;;;25.21;51.03;96734.53;5094459;28;20020;-29
2023/10/14 10:09:26;;;;;;;9.82;4.20;;;;;;;25.38;49.93;96732.34;5094512;28;20080;-29
2023/10/14 10:11:55;;;;;;;10.55;4.32;;;;;;;25.30;51.18;96733.44;5094422;28;20073;-29
2023/10/14 10:14:22;;;;;;;10.93;4.53;;;;;;;25.21;51.09;96728.97;5101810;28;20106;-30
2023/10/14 10:16:52;;;;;;;8.45;4.40;;;;;;;25.58;49.85;96727.63;5094657;28;20092;-31
2023/10/14 10:19:18;;;;;;;15.32;5.03;;;;;;;25.40;50.30;96724.25;5094568;28;20020;-29
2023/10/14 10:22:13;;;;;;;14.05;4.32;;;;;;;25.50;50.23;96721.88;5094256;28;20069;-29
2023/10/14 10:24:42;;;;;;;11.38;4.35;;;;;;;25.66;49.64;96715.44;5094007;28;20024;-29
2023/10/14 10:27:10;;;;;;;6.60;4.25;;;;;;;25.35;50.71;96727.06;5094045;28;20027;-29
2023/10/14 10:30:04;;;;;;;8.40;4.50;;;;;;;25.39;50.76;96717.19;5101659;28;20051;-29
2023/10/14 10:32:33;;;;;;;8.63;4.43;;;;;;;25.41;50.57;96728.53;5089293;28;20540;-31
2023/10/14 10:35:05;;;;;;;6.45;3.60;;;;;;;25.38;50.79;96721.22;5094554;28;20055;-29
2023/10/14 10:37:51;;;;;;;8.57;3.90;;;;;;;25.63;50.23;96710.94;5093897;28;20031;-30
2023/10/14 10:40:22;;;;;;;9.32;4.30;;;;;;;25.57;49.64;96715.78;5093808;28;20020;-28
2023/10/14 10:43:05;;;;;;;8.10;4.10;;;;;;;25.52;50.08;96713.03;5094180;28;20532;-29
2023/10/14 10:45:34;;;;;;;;;;;;;;;25.40;50.59;96702.03;5094408;28;20020;-28
2023/10/14 10:48:04;;;;;;;6.15;3.97;;;;;;;25.51;50.09;96715.06;5101961;27;19919;-30
2023/10/14 10:50:35;;;;;;;6.75;3.72;;;;;;;25.51;50.13;96705.97;5100810;28;20023;-29
2023/10/14 10:53:10;;;;;;;9.98;4.20;;;;;;;25.59;49.99;96693.03;5100998;28;20105;-29
2023/10/14 10:55:40;;;;;;;7.18;4.60;;;;;;;25.50;49.88;96690.59;5093445;28;20074;-29
2023/10/14 10:58:09;;;;;;;10.27;3.67;;;;;;;25.48;49.97;96674.44;5101062;28;20060;-29
2023/10/14 11:00:34;;;;;;;7.32;4.05;;;;;;;25.84;48.89;96674.38;5093659;28;20429;-29
2023/10/14 11:03:02;;;;;;;9.32;3.97;;;;;;;25.67;49.22;96669.00;5094939;28;20045;-28
2023/10/14 11:05:29;;;;;;;10.50;4.13;;;;;;;25.62;49.49;96667.00;5099383;28;20024;-29
2023/10/14 11:07:56;;;;;;;6.50;3.53;;;;;;;25.66;49.29;96664.69;5093690;28;20028;-29
2023/10/14 11:10:33;;;;;;;9.27;4.18;;;;;;;25.63;49.42;96660.94;5093712;28;20455;-29
2023/10/14 11:13:00;;;;;;;9.52;3.60;;;;;;;25.72;48.81;96654.28;5093713;28;20040;-29
2023/10/14 11:15:31;;;;;;;9.70;3.58;;;;;;;25.79;49.03;96645.38;5093695;28;20413;-29
2023/10/14 11:17:58;;;;;;;11.68;3.60;;;;;;;25.72;49.11;96649.47;5093673;28;20482;-29
2023/10/14 11:20:27;;;;;;;8.13;3.70;;;;;;;25.89;48.58;96640.19;5094239;28;20024;-30
2023/10/14 11:22:55;;;;;;;7.78;3.63;;;;;;;25.82;49.03;96630.44;5093822;28;20413;-28
2023/10/14 11:25:24;;;;;;;5.95;3.53;;;;;;;25.75;48.73;96625.44;5093376;28;20020;-29
2023/10/14 11:27:51;;;;;;;12.70;4.72;;;;;;;25.62;48.88;96622.56;5093686;28;20073;-29
2023/10/14 11:30:17;;;;;;;8.18;4.03;;;;;;;25.69;48.47;96616.44;5093521;28;20116;-28
2023/10/14 11:32:50;;;;;;;11.75;3.80;;;;;;;25.63;49.10;96615.75;5093320;28;20028;-29
2023/10/14 11:35:29;;;;;;;11.57;3.83;;;;;;;25.74;48.81;96619.16;5093357;28;20024;-29
2023/10/14 11:38:00;;;;;;;10.27;3.60;;;;;;;25.70;48.85;96617.94;5093533;28;20497;-29
2023/10/14 11:40:36;;;;;;;7.57;3.78;;;;;;;25.65;48.54;96611.19;5093600;28;20394;-29
2023/10/14 11:43:03;;;;;;;9.60;4.03;;;;;;;25.69;48.83;96599.78;5093445;28;20012;-30
2023/10/14 11:45:30;;;;;;;7.22;3.72;;;;;;;25.59;48.75;96598.63;5093420;28;20490;-29
2023/10/14 11:47:56;;;;;;;9.32;3.90;;;;;;;25.51;49.27;96592.88;5093713;28;20060;-29
2023/10/14 11:50:22;;;;;;;7.32;4.03;;;;;;;25.88;48.01;96594.97;5093485;28;20091;-29
2023/10/14 11:52:52;;;;;;;8.10;3.45;;;;;;;25.77;48.49;96595.13;5097123;28;20085;-29
2023/10/14 11:55:19;;;;;;;6.75;4.25;;;;;;;25.84;48.47;96588.25;5101999;28;20491;-30
2023/10/14 11:57:46;;;;;;;5.93;3.45;;;;;;;26.06;47.62;96588.69;5099270;28;20046;-29
2023/10/14 12:00:17;;;;;;;14.40;3.88;;;;;;;25.80;48.75;96582.97;5096739;28;20016;-29
2023/10/14 12:02:46;;;;;;;8.10;3.88;;;;;;;25.93;48.41;96582.31;5095575;28;20016;-30
2023/10/14 12:05:13;;;;;;;9.80;3.80;;;;;;;25.91;48.31;96579.28;5106817;28;20031;-29
2023/10/14 12:07:39;;;;;;;10.93;3.70;;;;;;;25.82;48.38;96572.09;5101192;28;20045;-29
2023/10/14 12:10:06;;;;;;;10.13;4.28;;;;;;;25.77;48.39;96562.53;5097060;28;20483;-29